Flight Track Log - Related Links

Times and Time Zones

All times are in EDT time to prevent confusion due to time zone crossing. See the JBU1329 flight status page for this flight to view local times or setup timezone preferences in your user account.


Time Position Orientation Groundspeed Altitude Reporting Facility
EDT Latitude Longitude Course Direction KTS MPH feet Rate Location/Type
Thu 09:25:01 AM 42.3833 -71.0000 262° West 150 173 800  Level KA90
Thu 09:25:31 AM 42.4000 -70.9833 36° Northeast 155 178 2,000 2,400 Climbing KA90
Thu 09:26:31 AM 42.4500 -70.9500 26° Northeast 228 262 4,400 3,160 Climbing KA90
Thu 09:28:00 AM 42.2805 -70.7459 228° Southwest  Level FlightAware Approximate
Thu 09:28:20 AM 42.4364 -70.7858 96° East 261 300 10,900  Level Boston Center
Thu 09:29:00 AM 42.2180 -70.8526 240° Southwest  Level FlightAware Approximate
Thu 09:29:20 AM 42.3525 -70.7656 170° South 232 267 13,000  Level Boston Center
Thu 09:30:00 AM 42.1824 -70.9765 262° West  Level FlightAware Approximate
Thu 09:30:20 AM 42.3169 -70.8903 249° West 206 237 15,900  Level Boston Center
Thu 09:31:20 AM 42.2894 -71.0283 255° West 292 336 18,200 2,050 Climbing Boston Center
Thu 09:32:20 AM 42.2581 -71.1833 255° West 368 423 20,000 2,150 Climbing Boston Center
Thu 09:33:20 AM 42.2283 -71.3356 255° West 407 468 22,500 2,300 Climbing Boston Center
Thu 09:34:20 AM 42.1942 -71.4928 254° West 431 496 24,600 1,900 Climbing Boston Center
Thu 09:35:20 AM 42.1392 -71.6281 241° Southwest 445 512 26,300 1,700 Climbing Boston Center
Thu 09:36:20 AM 42.0714 -71.7942 241° Southwest 452 520 28,000 1,500 Climbing Boston Center
Thu 09:37:20 AM 42.0033 -71.9456 239° Southwest 468 539 29,300 1,450 Climbing Boston Center
Thu 09:38:20 AM 41.9350 -72.0997 239° Southwest 475 547 30,900 1,350 Climbing Boston Center
Thu 09:39:20 AM 41.8689 -72.2589 241° Southwest 486 559 32,000 550 Climbing Boston Center
Thu 09:40:20 AM 41.8003 -72.4122 239° Southwest 486 559 32,000  Level Boston Center
Thu 09:41:20 AM 41.7314 -72.5736 240° Southwest 496 571 32,000  Level Boston Center
Thu 09:42:20 AM 41.6622 -72.7292 239° Southwest 496 571 32,000  Level Boston Center
Thu 09:43:20 AM 41.5931 -72.8869 240° Southwest 496 571 32,000  Level Boston Center
Thu 09:44:20 AM 41.5339 -73.0253 240° Southwest 489 563 32,000  Level Boston Center
Thu 09:45:20 AM 41.4644 -73.1797 239° Southwest 484 557 32,000 -300 Level Boston Center
Thu 09:46:20 AM 41.3944 -73.3367 239° Southwest 489 563 31,400 -1,244 Descending Boston Center
Thu 09:48:33 AM 41.2300 -73.6789 238° Southwest 499 574 28,000 -1,057 Descending New York Center
Thu 09:49:33 AM 41.1431 -73.8156 230° Southwest 499 574 28,000  Level New York Center
Thu 09:50:34 AM 41.0603 -73.9578 232° Southwest 492 566 28,000  Level New York Center
Thu 09:51:34 AM 40.9858 -74.0861 232° Southwest 492 566 28,000  Level New York Center
Thu 09:52:34 AM 40.8833 -74.2514 231° Southwest 498 573 28,000  Level New York Center
Thu 09:53:33 AM 40.8000 -74.3842 230° Southwest 492 566 28,000  Level New York Center
Thu 09:54:35 AM 40.7144 -74.5219 231° Southwest 487 560 28,000 -244 Level New York Center
Thu 09:55:36 AM 40.6331 -74.6597 232° Southwest 487 560 27,500 -1,475 Descending New York Center
Thu 09:56:33 AM 40.5675 -74.8089 240° Southwest 487 560 25,100 -2,441 Descending New York Center
Thu 09:57:34 AM 40.5042 -74.9525 240° Southwest 467 537 22,700 -2,380 Descending New York Center
Thu 09:58:34 AM 40.4450 -75.0908 241° Southwest 450 518 20,300 -1,934 Descending New York Center
Thu 09:59:35 AM 40.3900 -75.2236 241° Southwest 438 504 18,800 -1,160 Descending New York Center
Thu 10:00:33 AM 40.3308 -75.3586 240° Southwest 426 490 18,000 -407 Descending New York Center
Thu 10:01:33 AM 40.2425 -75.4317 212° Southwest 405 466 18,000  Level New York Center
Thu 10:02:35 AM 40.1306 -75.5164 210° Southwest 425 489 18,000  Level New York Center
Thu 10:03:33 AM 40.0403 -75.5836 210° Southwest 432 497 18,000  Level New York Center
Thu 10:04:34 AM 39.9328 -75.6656 210° Southwest 425 489 18,000 -49 Level New York Center
Thu 10:05:35 AM 39.8681 -75.7692 231° Southwest 409 471 17,900 -1,419 Descending New York Center
Thu 10:07:40 AM 39.7333 -76.0167 235° Southwest 359 413 13,600 -1,914 Descending Potomac TRACON
Thu 10:08:40 AM 39.6833 -76.1167 237° Southwest 321 369 12,000 -1,050 Descending Potomac TRACON
Thu 10:09:40 AM 39.6333 -76.2167 237° Southwest 310 357 11,500 -496 Descending Potomac TRACON
Thu 10:10:41 AM 39.6000 -76.3000 243° Southwest 306 352 11,000 -595 Descending Potomac TRACON
Thu 10:11:41 AM 39.5500 -76.4000 237° Southwest 305 351 10,300 -992 Descending Potomac TRACON
Thu 10:12:42 AM 39.5000 -76.5000 237° Southwest 298 343 9,000 -1,041 Descending Potomac TRACON
Thu 10:13:42 AM 39.4500 -76.5833 232° Southwest 294 338 8,200 -1,000 Descending Potomac TRACON
Thu 10:14:42 AM 39.4167 -76.6833 247° West 293 337 7,000 -694 Descending Potomac TRACON
Thu 10:15:43 AM 39.3833 -76.7667 243° Southwest 293 337 6,800 -893 Descending Potomac TRACON
Thu 10:16:43 AM 39.3333 -76.8500 232° Southwest 285 328 5,200 -1,488 Descending Potomac TRACON
Thu 10:17:44 AM 39.2833 -76.9000 218° Southwest 251 289 3,800 -1,289 Descending Potomac TRACON
Thu 10:18:44 AM 39.2167 -76.9000 180° South 220 253 2,600 -900 Descending Potomac TRACON
Thu 10:19:44 AM 39.1833 -76.8500 131° Southeast 173 199 2,000 -347 Descending Potomac TRACON
Thu 10:20:45 AM 39.1833 -76.8000 90° East 141 162 1,900 -397 Descending Potomac TRACON
Thu 10:21:45 AM 39.1833 -76.7500 90° East 122 140 1,200 -700 Descending Potomac TRACON
Thu 10:22:45 AM 39.1833 -76.7167 90° East 125 144 500 -700 Descending Potomac TRACON

Login

Don't have an account? Register now (free) for customized features, flight alerts, and more!